Aérodrome :
LOGIN :

S'inscrire | Disclaimer

   EN    FR    IT 

 










Légende :    VFR   VFR Marginal   IFR   IFR Intensif   IFR Très Intensif
Visi : 
Plafond : 
>= 8 km
>= 3000ft
5 à 8 km
1000 à 3000 ft
1500m à 5 km
500 à 1000 ft
800 à 1500m
200 à 500 ft
< 800m
< 200 ft
Symboles :   Orages  Brouillard  Fortes neiges  Fortes précipitations  Vent > 20 kt
SIGMETs :   Divers  Orages  Givrage  Turbulence  Onde Orograph.  Cendres Volcan.







- Altitude de l'aérodrome : 1521 ft
- Code IATA : NCY
- Voir les cartes d'approche


LFLP - Annecy

DERNIER METAR :
  • 191230Z AUTO VRB05KT 9999 FEW050/// ///TCU 29/16 Q1021 TEMPO FEW050CB

METARs EXPIRÉS :
  • 191200Z AUTO 27006KT 210V340 9999 FEW046/// ///TCU 28/16 Q1021 TEMPO FEW050CB
  • 191130Z AUTO 01005KT 310V070 9999 BKN043 27/17 Q1021 TEMPO FEW050CB
  • 191100Z AUTO 03004KT 330V140 9999 BKN039 27/16 Q1021 TEMPO FEW050CB
  • 191030Z AUTO 31007KT 240V350 9999 BKN037 26/16 Q1022 TEMPO FEW050CB
  • 191000Z AUTO VRB03KT 9999 FEW035 26/16 Q1022 NOSIG

TAF TAF LFLP
Valide du 19 à 09h jusqu'au 20 à 09h UTC


190800Z 1909/2009 30006KT CAVOK
TEMPO 1912/1918 FEW050TCU
PROB30
TEMPO 1912/1918 FEW050CB
Pas de NOTAMs connus pour ce terrain.
2 SIGMETs publiés pour la FIR Marseille (LFMM) :
 
Orages noyés dans la masse
LFMM SIGMET 6 VALID 191300/191500 LFPW
LFMM MARSEILLE FIR/UIR EMBD TS OBS S OF LINE N4100 E00800 - N4100 E00430 TOP FL380 STNR NC=
Orages noyés dans la masse
LFMM SIGMET 5 VALID 191000/191300 LFPW
LFMM MARSEILLE FIR/UIR EMBD TS OBS WI N4115 E00800 - N3900 E00800 - N3900 E00430 - N4100 E00430 - N4200 E00800 - N4115 E00800 TOP FL380 STNR NC=



MET'MAP, la Météo Aéronautique d'un coup d'oeil ! - Copyright ORBIFLY Décembre 2007 - Disclaimer

ORBIFLY MET'MAP TEAM :

Programmation & Développement : Alexandra Zaïnal
Conception & Développement : Baudouin d'Aumeries
Co-Programmation & Développement : Marc-Olivier Méhu
Soutien technique & logistique : Manuel Goepfert

Contact : metmap@orbifly.com




SOURCES & CREDITS :

   NOAA